createdAt,value
2018-02-08T00:01:14.394Z,44.50
2018-02-08T00:03:41.946Z,42.53
2018-02-08T00:06:09.545Z,41.03
2018-02-08T00:08:37.091Z,45.67
2018-02-08T00:11:04.620Z,45.60
2018-02-08T00:13:32.141Z,42.33
2018-02-08T00:15:59.698Z,39.03
2018-02-08T00:18:27.494Z,44.23
2018-02-08T00:20:55.204Z,42.93
2018-02-08T00:23:22.734Z,43.37
2018-02-08T00:25:50.267Z,37.50
2018-02-08T00:28:18.891Z,43.60
2018-02-08T00:30:46.542Z,38.65
2018-02-08T00:33:14.064Z,37.33
2018-02-08T00:35:41.743Z,38.03
2018-02-08T00:38:09.334Z,43.00
2018-02-08T00:40:36.954Z,39.93
2018-02-08T00:43:04.538Z,40.17
2018-02-08T00:45:32.077Z,41.27
2018-02-08T00:47:59.619Z,42.57
2018-02-08T00:50:27.150Z,40.30
2018-02-08T00:52:54.660Z,42.43
2018-02-08T00:55:22.175Z,47.00
2018-02-08T00:57:49.737Z,34.70
2018-02-08T01:00:17.321Z,37.03
2018-02-08T01:02:44.931Z,40.37
2018-02-08T01:05:12.508Z,42.03
2018-02-08T01:07:40.026Z,46.47
2018-02-08T01:10:07.549Z,43.57
2018-02-08T01:12:35.076Z,37.87
2018-02-08T01:15:02.591Z,37.95
2018-02-08T01:17:30.119Z,38.50
2018-02-08T01:19:57.656Z,42.43
2018-02-08T01:22:25.164Z,46.60
2018-02-08T01:24:52.683Z,40.63
2018-02-08T01:27:20.301Z,44.10
2018-02-08T01:29:47.891Z,38.97
2018-02-08T01:32:15.493Z,39.47
2018-02-08T01:34:43.009Z,42.77
2018-02-08T01:37:10.634Z,38.30
2018-02-08T01:39:39.088Z,38.63
2018-02-08T01:42:06.645Z,41.07
2018-02-08T01:44:34.250Z,43.57
2018-02-08T01:47:01.839Z,43.30
2018-02-08T01:49:41.275Z,42.25
2018-02-08T01:52:08.804Z,41.50
2018-02-08T01:54:36.387Z,41.60
2018-02-08T01:57:03.959Z,43.70
2018-02-08T01:59:31.484Z,42.97
2018-02-08T02:01:59.008Z,43.70
2018-02-08T02:04:26.544Z,43.23
2018-02-08T02:06:54.094Z,45.07
2018-02-08T02:09:21.684Z,43.63
2018-02-08T02:11:49.214Z,45.03
2018-02-08T02:14:16.760Z,42.60
2018-02-08T02:16:44.284Z,42.72
2018-02-08T02:19:11.798Z,45.63
2018-02-08T02:21:39.395Z,41.47
2018-02-08T02:24:06.962Z,42.42
2018-02-08T02:26:34.556Z,42.43
2018-02-08T02:29:02.134Z,42.07
2018-02-08T02:31:29.718Z,41.90
2018-02-08T02:33:57.301Z,40.20
2018-02-08T02:36:24.836Z,44.87
2018-02-08T02:38:52.369Z,44.20
2018-02-08T02:41:19.960Z,43.20
2018-02-08T02:43:47.615Z,43.17
2018-02-08T02:46:15.181Z,44.20
2018-02-08T02:48:42.760Z,41.10
2018-02-08T02:51:10.308Z,47.53
2018-02-08T02:53:37.949Z,39.93
2018-02-08T02:56:05.485Z,43.90
2018-02-08T02:58:34.049Z,46.40
2018-02-08T03:01:01.596Z,43.70
2018-02-08T03:03:29.214Z,41.07
2018-02-08T03:05:57.573Z,45.40
2018-02-08T03:08:25.094Z,40.17
2018-02-08T03:10:52.636Z,42.00
2018-02-08T03:13:20.151Z,44.03
2018-02-08T03:15:48.086Z,43.73
2018-02-08T03:18:15.618Z,42.20
2018-02-08T03:20:43.148Z,40.08
2018-02-08T03:23:10.759Z,40.60
2018-02-08T03:25:38.695Z,42.90
2018-02-08T03:28:06.235Z,46.83
2018-02-08T03:30:33.775Z,44.53
2018-02-08T03:33:01.294Z,45.00
2018-02-08T03:35:29.005Z,49.63
2018-02-08T03:37:56.565Z,44.70
2018-02-08T03:40:24.118Z,42.17
2018-02-08T03:42:51.666Z,41.80
2018-02-08T03:45:19.284Z,40.60
2018-02-08T03:47:46.800Z,42.50
2018-02-08T03:50:14.320Z,45.67
2018-02-08T03:52:41.953Z,49.43
2018-02-08T03:55:09.474Z,49.33
2018-02-08T03:57:37.025Z,43.20
2018-02-08T04:00:04.549Z,46.30
2018-02-08T04:02:32.134Z,46.80
2018-02-08T04:04:59.685Z,44.67
2018-02-08T04:07:27.241Z,43.70
2018-02-08T04:09:54.815Z,43.77
2018-02-08T04:12:22.574Z,47.78
2018-02-08T04:14:50.126Z,47.10
2018-02-08T04:17:17.738Z,46.33
2018-02-08T04:19:45.336Z,45.33
2018-02-08T04:22:12.859Z,47.90
2018-02-08T04:24:40.420Z,45.67
2018-02-08T04:27:07.939Z,50.93
2018-02-08T04:29:35.526Z,42.77
2018-02-08T04:32:03.050Z,51.63
2018-02-08T04:34:30.650Z,47.37
2018-02-08T04:36:58.198Z,43.10
2018-02-08T04:39:37.632Z,46.50
2018-02-08T04:42:17.010Z,46.03
2018-02-08T04:44:56.411Z,42.83
2018-02-08T04:47:27.918Z,47.70
2018-02-08T04:49:55.499Z,49.95
2018-02-08T04:52:23.081Z,51.30
2018-02-08T04:54:50.689Z,51.30
2018-02-08T04:57:18.212Z,49.40
2018-02-08T04:59:45.844Z,49.07
2018-02-08T05:02:14.216Z,50.23
2018-02-08T05:04:41.850Z,48.20
2018-02-08T05:07:09.454Z,50.80
2018-02-08T05:09:37.039Z,45.97
2018-02-08T05:12:04.577Z,48.83
2018-02-08T05:14:32.124Z,51.63
2018-02-08T05:16:59.637Z,55.53
2018-02-08T05:19:27.161Z,44.70
2018-02-08T05:21:54.800Z,44.83
2018-02-08T05:24:22.351Z,45.10
2018-02-08T05:26:49.900Z,45.33
2018-02-08T05:29:17.449Z,46.00
2018-02-08T05:31:44.965Z,43.60
2018-02-08T05:34:12.536Z,44.03
2018-02-08T05:36:40.085Z,47.13
2018-02-08T05:39:07.656Z,49.17
2018-02-08T05:41:35.170Z,52.43
2018-02-08T05:44:02.720Z,50.20
2018-02-08T05:46:30.255Z,50.17
2018-02-08T05:48:57.855Z,58.08
2018-02-08T05:51:31.671Z,54.77
2018-02-08T05:53:59.236Z,57.20
2018-02-08T05:56:26.885Z,53.87
2018-02-08T05:58:54.422Z,56.43
2018-02-08T06:01:21.945Z,54.30
2018-02-08T06:03:49.509Z,56.40
2018-02-08T06:06:17.191Z,52.07
2018-02-08T06:08:44.765Z,56.58
2018-02-08T06:11:15.781Z,56.22
2018-02-08T06:13:43.408Z,75.95
2018-02-08T06:16:11.001Z,61.43
2018-02-08T06:18:38.526Z,60.83
2018-02-08T06:21:06.099Z,60.90
2018-02-08T06:23:33.639Z,56.73
2018-02-08T06:26:01.240Z,59.00
2018-02-08T06:28:28.767Z,66.25
2018-02-08T06:30:56.541Z,66.70
2018-02-08T06:33:24.056Z,60.70
2018-02-08T06:35:56.401Z,68.83
2018-02-08T06:38:23.961Z,64.60
2018-02-08T06:40:51.489Z,61.53
2018-02-08T06:43:19.045Z,65.68
2018-02-08T06:45:47.746Z,71.03
2018-02-08T06:48:15.364Z,62.83
2018-02-08T06:50:42.910Z,66.07
2018-02-08T06:53:10.469Z,68.93
2018-02-08T06:55:37.993Z,65.03
2018-02-08T06:58:05.761Z,67.80
2018-02-08T07:00:33.269Z,68.30
2018-02-08T07:03:00.825Z,67.83
2018-02-08T07:05:28.438Z,64.27
2018-02-08T07:07:56.164Z,68.60
2018-02-08T07:10:23.704Z,62.63
2018-02-08T07:12:51.237Z,65.67
2018-02-08T07:15:19.305Z,64.90
2018-02-08T07:17:47.006Z,64.83
2018-02-08T07:20:14.536Z,66.93
2018-02-08T07:22:42.114Z,65.50
2018-02-08T07:25:09.665Z,70.23
2018-02-08T07:27:37.401Z,75.23
2018-02-08T07:30:05.066Z,77.37
2018-02-08T07:32:32.671Z,72.20
2018-02-08T07:35:00.196Z,73.30
2018-02-08T07:37:27.730Z,71.13
2018-02-08T07:39:55.261Z,70.67
2018-02-08T07:42:22.815Z,74.53
2018-02-08T07:44:50.345Z,68.90
2018-02-08T07:47:17.924Z,65.60
2018-02-08T07:49:45.521Z,69.65
2018-02-08T07:52:13.125Z,63.60
2018-02-08T07:54:40.678Z,71.73
2018-02-08T07:57:08.192Z,73.17
2018-02-08T07:59:35.735Z,70.37
2018-02-08T08:02:03.254Z,70.00
2018-02-08T08:04:30.809Z,66.53
2018-02-08T08:06:58.356Z,71.57
2018-02-08T08:09:25.995Z,79.80
2018-02-08T08:11:53.730Z,63.80
2018-02-08T08:14:21.259Z,71.82
2018-02-08T08:16:48.914Z,65.90
2018-02-08T08:19:16.424Z,69.13
2018-02-08T08:21:43.961Z,77.00
2018-02-08T08:24:11.706Z,74.10
2018-02-08T08:26:39.449Z,66.87
2018-02-08T08:29:07.164Z,67.20
2018-02-08T08:31:34.787Z,78.10
2018-02-08T08:34:02.501Z,115.53
2018-02-08T08:36:30.064Z,92.13
2018-02-08T08:38:58.057Z,88.50
2018-02-08T08:41:25.600Z,74.13
2018-02-08T08:43:53.139Z,76.53
2018-02-08T08:46:20.717Z,72.00
2018-02-08T08:48:48.250Z,72.87
2018-02-08T08:51:15.856Z,70.53
2018-02-08T08:53:43.361Z,74.90
2018-02-08T08:56:10.900Z,74.40
2018-02-08T08:58:38.520Z,71.70
2018-02-08T09:01:06.031Z,72.07
2018-02-08T09:03:33.689Z,69.07
2018-02-08T09:06:01.222Z,82.60
2018-02-08T09:08:28.992Z,65.87
2018-02-08T09:10:56.519Z,66.90
2018-02-08T09:13:24.066Z,73.07
2018-02-08T09:15:51.576Z,86.25
2018-02-08T09:18:19.100Z,67.18
2018-02-08T09:20:46.691Z,70.80
2018-02-08T09:23:14.216Z,87.20
2018-02-08T09:25:41.799Z,90.63
2018-02-08T09:28:09.311Z,76.57
2018-02-08T09:30:36.896Z,79.30
2018-02-08T09:33:04.420Z,68.70
2018-02-08T09:35:31.990Z,65.03
2018-02-08T09:37:59.670Z,67.30
2018-02-08T09:40:27.186Z,77.90
2018-02-08T09:42:54.794Z,80.17
2018-02-08T09:45:22.341Z,68.20
2018-02-08T09:47:50.435Z,62.93
2018-02-08T09:50:17.966Z,68.85
2018-02-08T09:52:45.713Z,63.77
2018-02-08T09:55:13.239Z,72.53
2018-02-08T09:57:40.756Z,68.13
2018-02-08T10:00:08.306Z,68.87
2018-02-08T10:02:35.880Z,68.57
2018-02-08T10:05:03.425Z,67.80
2018-02-08T10:07:31.179Z,72.80
2018-02-08T10:09:58.862Z,81.57
2018-02-08T10:12:26.461Z,73.40
2018-02-08T10:14:54.001Z,79.93
2018-02-08T10:17:21.514Z,77.87
2018-02-08T10:19:49.105Z,69.83
2018-02-08T10:22:16.646Z,68.50
2018-02-08T10:24:44.351Z,70.17
2018-02-08T10:27:11.870Z,68.07
2018-02-08T10:29:39.582Z,70.70
2018-02-08T10:32:07.181Z,68.83
2018-02-08T10:34:34.691Z,70.07
2018-02-08T10:37:02.261Z,69.18
2018-02-08T10:39:29.783Z,66.73
2018-02-08T10:41:57.325Z,70.10
2018-02-08T10:44:24.925Z,68.85
2018-02-08T10:46:52.466Z,69.90
2018-02-08T10:49:20.009Z,69.67
2018-02-08T10:51:47.604Z,71.40
2018-02-08T10:54:15.136Z,74.30
2018-02-08T10:56:42.670Z,71.60
2018-02-08T10:59:10.430Z,73.07
2018-02-08T11:01:37.989Z,73.37
2018-02-08T11:04:05.653Z,71.10
2018-02-08T11:06:33.190Z,67.53
2018-02-08T11:09:00.740Z,71.57
2018-02-08T11:11:28.263Z,74.10
2018-02-08T11:13:55.799Z,73.10
2018-02-08T11:16:23.325Z,77.00
2018-02-08T11:18:50.866Z,77.23
2018-02-08T11:21:18.601Z,76.50
2018-02-08T11:23:46.370Z,68.23
2018-02-08T11:26:13.889Z,73.93
2018-02-08T11:28:41.434Z,68.50
2018-02-08T11:31:09.059Z,71.63
2018-02-08T11:33:36.655Z,71.30
2018-02-08T11:36:04.345Z,78.43
2018-02-08T11:38:31.876Z,76.35
2018-02-08T11:41:07.651Z,77.60
2018-02-08T11:43:35.416Z,67.57
2018-02-08T11:46:03.081Z,69.27
2018-02-08T11:48:30.626Z,66.73
2018-02-08T11:50:58.229Z,75.97
2018-02-08T11:53:25.808Z,78.00
2018-02-08T11:55:53.451Z,67.78
2018-02-08T11:58:21.046Z,76.23
2018-02-08T12:00:49.429Z,70.55
2018-02-08T12:03:16.981Z,68.30
2018-02-08T12:05:44.630Z,75.13
2018-02-08T12:08:12.204Z,75.70
2018-02-08T12:10:39.714Z,79.37
2018-02-08T12:13:07.239Z,76.13
2018-02-08T12:15:34.816Z,71.17
2018-02-08T12:18:02.350Z,75.40
2018-02-08T12:20:29.971Z,73.15
2018-02-08T12:22:57.617Z,70.53
2018-02-08T12:25:25.177Z,71.23
2018-02-08T12:27:52.714Z,71.07
2018-02-08T12:30:20.324Z,73.73
2018-02-08T12:32:47.860Z,65.22
2018-02-08T12:35:15.550Z,68.17
2018-02-08T12:37:43.190Z,70.93
2018-02-08T12:40:10.713Z,70.47
2018-02-08T12:42:38.320Z,70.63
2018-02-08T12:45:06.045Z,74.97
2018-02-08T12:47:33.565Z,67.87
2018-02-08T12:50:01.125Z,72.47
2018-02-08T12:52:28.790Z,67.67
2018-02-08T12:54:56.338Z,68.72
2018-02-08T12:57:23.874Z,68.37
2018-02-08T12:59:51.433Z,70.13
2018-02-08T13:02:19.054Z,69.80
2018-02-08T13:04:46.821Z,75.68
2018-02-08T13:07:14.521Z,68.83
2018-02-08T13:09:42.929Z,78.05
2018-02-08T13:12:10.504Z,72.90
2018-02-08T13:14:38.046Z,68.23
2018-02-08T13:17:05.565Z,69.53
2018-02-08T13:19:33.090Z,73.67
2018-02-08T13:22:00.705Z,72.17
2018-02-08T13:24:28.301Z,67.93
2018-02-08T13:26:55.850Z,70.60
2018-02-08T13:29:23.476Z,71.93
2018-02-08T13:31:55.768Z,70.40
2018-02-08T13:34:23.291Z,74.40
2018-02-08T13:36:50.901Z,69.07
2018-02-08T13:39:29.290Z,71.97
2018-02-08T13:41:57.195Z,103.60
2018-02-08T13:44:24.795Z,87.73
2018-02-08T13:46:52.360Z,73.77
2018-02-08T13:49:24.854Z,78.97
2018-02-08T13:54:59.224Z,84.60
2018-02-08T13:57:32.342Z,68.03
2018-02-08T14:00:03.303Z,76.93
2018-02-08T14:02:30.839Z,69.93
2018-02-08T14:04:58.454Z,75.10
2018-02-08T14:07:26.026Z,75.33
2018-02-08T14:09:53.550Z,78.27
2018-02-08T14:12:21.096Z,61.67
2018-02-08T14:14:48.774Z,71.30
2018-02-08T14:17:16.329Z,75.30
2018-02-08T14:19:43.919Z,66.10
2018-02-08T14:22:11.512Z,74.03
2018-02-08T14:24:39.219Z,74.93
2018-02-08T14:27:06.841Z,76.20
2018-02-08T14:29:34.396Z,78.53
2018-02-08T14:32:02.013Z,72.80
2018-02-08T14:34:30.389Z,69.70
2018-02-08T14:36:57.936Z,76.77
2018-02-08T14:39:25.476Z,72.30
2018-02-08T14:41:53.044Z,76.03
2018-02-08T14:44:20.590Z,85.73
2018-02-08T14:46:48.137Z,78.87
2018-02-08T14:49:15.697Z,85.97
2018-02-08T14:51:43.230Z,118.17
2018-02-08T14:54:10.816Z,81.47
2018-02-08T14:56:38.437Z,78.20
2018-02-08T14:59:06.009Z,75.93
2018-02-08T15:01:33.715Z,83.00
2018-02-08T15:04:01.260Z,90.03
2018-02-08T15:06:28.966Z,91.60
2018-02-08T15:08:56.635Z,76.33
2018-02-08T15:11:24.576Z,88.90
2018-02-08T15:13:52.302Z,78.63
2018-02-08T15:16:20.009Z,76.07
2018-02-08T15:18:47.622Z,89.27
2018-02-08T15:21:15.192Z,85.70
2018-02-08T15:23:42.802Z,87.70
2018-02-08T15:26:10.459Z,87.60
2018-02-08T15:28:37.985Z,81.37
2018-02-08T15:31:05.631Z,82.03
2018-02-08T15:33:33.225Z,94.27
2018-02-08T15:36:00.751Z,81.87
2018-02-08T15:38:28.270Z,88.87
2018-02-08T15:40:55.821Z,84.30
2018-02-08T15:43:23.350Z,85.20
2018-02-08T15:45:50.880Z,88.30
2018-02-08T15:48:18.496Z,89.53
2018-02-08T15:50:46.112Z,89.15
2018-02-08T15:53:13.705Z,88.23
2018-02-08T15:55:41.252Z,111.13
2018-02-08T15:58:08.922Z,97.90
2018-02-08T16:00:36.556Z,87.00
2018-02-08T16:03:04.211Z,109.50
2018-02-08T16:05:31.811Z,109.73
2018-02-08T16:07:59.401Z,100.97
2018-02-08T16:10:26.930Z,78.63
2018-02-08T16:12:54.461Z,86.60
2018-02-08T16:15:22.035Z,89.07
2018-02-08T16:17:49.596Z,96.47
2018-02-08T16:20:17.151Z,83.27
2018-02-08T16:22:44.766Z,80.23
2018-02-08T16:25:12.335Z,82.47
2018-02-08T16:27:39.957Z,90.10
2018-02-08T16:30:07.515Z,78.00
2018-02-08T16:32:35.120Z,85.17
2018-02-08T16:38:56.829Z,91.13
2018-02-08T16:41:24.407Z,87.60
2018-02-08T16:43:52.027Z,92.20
2018-02-08T16:46:19.605Z,86.77
2018-02-08T16:48:47.125Z,81.60
2018-02-08T16:51:14.651Z,77.97
2018-02-08T16:53:42.241Z,95.60
2018-02-08T16:56:09.945Z,76.75
2018-02-08T16:58:37.477Z,117.63
2018-02-08T17:01:05.167Z,83.37
2018-02-08T17:03:32.870Z,76.77
2018-02-08T17:06:00.426Z,78.20
2018-02-08T17:08:28.078Z,77.27
2018-02-08T17:10:55.661Z,77.57
2018-02-08T17:13:23.590Z,73.60
2018-02-08T17:15:51.169Z,87.57
2018-02-08T17:18:18.680Z,87.80
2018-02-08T17:20:46.316Z,79.67
2018-02-08T17:23:13.854Z,79.32
2018-02-08T17:25:41.460Z,78.50
2018-02-08T17:28:08.991Z,84.07
2018-02-08T17:30:36.542Z,81.63
2018-02-08T17:33:04.180Z,80.80
2018-02-08T17:35:31.822Z,76.93
2018-02-08T17:37:59.353Z,78.17
2018-02-08T17:40:26.895Z,82.03
2018-02-08T17:42:54.530Z,81.18
2018-02-08T17:45:22.141Z,77.30
2018-02-08T17:47:49.670Z,74.93
2018-02-08T17:50:17.219Z,80.13
2018-02-08T17:52:44.764Z,72.67
2018-02-08T17:55:12.289Z,81.93
2018-02-08T17:57:39.968Z,78.43
2018-02-08T18:00:07.682Z,85.53
2018-02-08T18:02:35.314Z,78.27
2018-02-08T18:05:03.197Z,82.37
2018-02-08T18:07:30.786Z,81.27
2018-02-08T18:09:58.356Z,83.10
2018-02-08T18:12:26.021Z,79.93
2018-02-08T18:14:53.653Z,84.40
2018-02-08T18:17:21.220Z,86.00
2018-02-08T18:19:48.856Z,90.50
2018-02-08T18:22:16.626Z,84.83
2018-02-08T18:24:44.295Z,82.23
2018-02-08T18:27:11.927Z,81.33
2018-02-08T18:29:39.546Z,78.27
2018-02-08T18:32:07.270Z,81.77
2018-02-08T18:34:34.908Z,87.33
2018-02-08T18:37:02.539Z,91.97
2018-02-08T18:39:30.107Z,80.43
2018-02-08T18:41:57.777Z,85.13
2018-02-08T18:44:25.377Z,84.57
2018-02-08T18:46:52.978Z,84.00
2018-02-08T18:49:20.839Z,82.28
2018-02-08T18:51:48.487Z,76.40
2018-02-08T18:54:16.176Z,87.83
2018-02-08T18:56:43.831Z,85.97
2018-02-08T18:59:11.377Z,83.60
2018-02-08T19:01:38.959Z,84.63
2018-02-08T19:04:06.518Z,80.70
2018-02-08T19:06:34.373Z,84.70
2018-02-08T19:09:01.911Z,86.23
2018-02-08T19:11:29.460Z,92.00
2018-02-08T19:13:57.130Z,89.47
2018-02-08T19:16:25.514Z,88.03
2018-02-08T19:18:53.045Z,88.30
2018-02-08T19:21:20.635Z,86.50
2018-02-08T19:23:48.306Z,85.12
2018-02-08T19:26:15.846Z,84.10
2018-02-08T19:28:43.512Z,85.73
2018-02-08T19:31:11.107Z,77.30
2018-02-08T19:33:38.665Z,81.63
2018-02-08T19:36:06.210Z,82.23
2018-02-08T19:38:33.992Z,87.35
2018-02-08T19:41:02.166Z,83.25
2018-02-08T19:43:30.639Z,80.40
2018-02-08T19:45:58.379Z,96.00
2018-02-08T19:48:25.996Z,97.70
2018-02-08T19:50:53.686Z,89.70
2018-02-08T19:53:21.400Z,82.03
2018-02-08T19:55:50.051Z,87.87
2018-02-08T19:58:17.700Z,86.70
2018-02-08T20:00:45.440Z,98.30
2018-02-08T20:03:13.104Z,95.40
2018-02-08T20:05:40.760Z,97.90
2018-02-08T20:08:08.394Z,93.83
2018-02-08T20:10:35.958Z,90.60
2018-02-08T20:13:03.615Z,87.43
2018-02-08T20:15:40.680Z,91.73
2018-02-08T20:18:08.251Z,97.60
2018-02-08T20:20:35.821Z,89.03
2018-02-08T20:23:03.487Z,88.60
2018-02-08T20:25:36.554Z,85.47
2018-02-08T20:28:04.134Z,91.83
2018-02-08T20:30:31.768Z,86.33
2018-02-08T20:32:59.440Z,88.03
2018-02-08T20:35:27.010Z,84.55
2018-02-08T20:37:54.725Z,88.53
2018-02-08T20:40:22.300Z,87.13
2018-02-08T20:42:55.649Z,99.13
2018-02-08T20:45:23.182Z,90.77
2018-02-08T20:47:50.756Z,88.22
2018-02-08T20:50:18.404Z,88.97
2018-02-08T20:52:46.130Z,95.47
2018-02-08T20:55:13.789Z,90.10
2018-02-08T20:57:41.415Z,95.13
2018-02-08T21:00:09.100Z,93.53
2018-02-08T21:02:36.656Z,93.10
2018-02-08T21:05:04.431Z,84.40
2018-02-08T21:07:32.255Z,89.37
2018-02-08T21:09:59.792Z,82.12
2018-02-08T21:12:27.355Z,83.00
2018-02-08T21:14:54.912Z,82.57
2018-02-08T21:17:22.551Z,78.87
2018-02-08T21:19:50.426Z,90.03
2018-02-08T21:22:17.990Z,76.00
2018-02-08T21:24:45.626Z,83.20
2018-02-08T21:27:13.213Z,99.83
2018-02-08T21:29:40.920Z,86.97
2018-02-08T21:32:08.465Z,83.67
2018-02-08T21:34:36.192Z,78.27
2018-02-08T21:37:03.867Z,92.67
2018-02-08T21:39:31.711Z,101.33
2018-02-08T21:41:59.270Z,91.60
2018-02-08T21:44:26.882Z,87.33
2018-02-08T21:46:54.520Z,94.80
2018-02-08T21:49:22.130Z,92.63
2018-02-08T21:51:49.887Z,89.23
2018-02-08T21:54:17.556Z,90.00
2018-02-08T21:56:45.189Z,87.97
2018-02-08T21:59:12.815Z,89.97
2018-02-08T22:01:40.394Z,79.93
2018-02-08T22:04:07.945Z,82.53
2018-02-08T22:06:35.487Z,88.00
2018-02-08T22:09:03.030Z,81.57
2018-02-08T22:11:30.666Z,88.10
2018-02-08T22:13:58.211Z,86.75
2018-02-08T22:16:25.781Z,85.63
2018-02-08T22:18:53.328Z,94.30
2018-02-08T22:21:20.939Z,85.30
2018-02-08T22:23:48.487Z,88.50
2018-02-08T22:26:16.026Z,94.37
2018-02-08T22:28:43.667Z,78.73
2018-02-08T22:31:11.240Z,88.93
2018-02-08T22:33:38.836Z,92.07
2018-02-08T22:36:06.375Z,87.10
2018-02-08T22:38:34.366Z,82.23
2018-02-08T22:41:01.975Z,87.40
2018-02-08T22:43:29.510Z,98.07
2018-02-08T22:45:57.066Z,82.10
2018-02-08T22:48:24.780Z,94.30
2018-02-08T22:50:52.495Z,86.77
2018-02-08T22:53:20.037Z,92.00
2018-02-08T22:55:48.518Z,95.60
2018-02-08T22:58:16.143Z,95.73
2018-02-08T23:00:43.764Z,93.67
2018-02-08T23:03:11.315Z,101.60
2018-02-08T23:05:38.901Z,81.83
2018-02-08T23:08:06.649Z,90.50
2018-02-08T23:10:34.202Z,87.83
2018-02-08T23:13:01.737Z,92.30
2018-02-08T23:15:29.396Z,92.07
2018-02-08T23:17:57.012Z,103.57
2018-02-08T23:20:24.637Z,84.50
2018-02-08T23:22:52.292Z,83.05
2018-02-08T23:25:19.825Z,95.07
2018-02-08T23:27:47.516Z,94.63
2018-02-08T23:30:15.040Z,91.20
2018-02-08T23:32:42.654Z,87.33
2018-02-08T23:35:10.191Z,91.10
2018-02-08T23:37:37.938Z,94.60
2018-02-08T23:40:05.476Z,88.90
2018-02-08T23:42:33.050Z,94.07
2018-02-08T23:45:00.694Z,96.37
2018-02-08T23:47:28.262Z,92.40
2018-02-08T23:49:55.795Z,94.40
2018-02-08T23:52:23.340Z,89.22
2018-02-08T23:54:50.887Z,83.90
2018-02-08T23:57:18.425Z,101.13
2018-02-08T23:59:46.031Z,93.57
